sensor_id;sensor_type;location;lat;lon;timestamp;pressure;altitude;pressure_sealevel;temperature;humidity
41573;BME280;27286;47.870;19.006;2022-09-09T00:00:24;98984.75;;;18.75;71.68
41573;BME280;27286;47.870;19.006;2022-09-09T00:03:02;98976.66;;;18.67;72.23
41573;BME280;27286;47.870;19.006;2022-09-09T00:08:19;98981.53;;;18.72;72.62
41573;BME280;27286;47.870;19.006;2022-09-09T00:10:47;98983.94;;;18.63;72.92
41573;BME280;27286;47.870;19.006;2022-09-09T00:13:26;98969.94;;;18.52;73.04
41573;BME280;27286;47.870;19.006;2022-09-09T00:16:07;98974.59;;;18.59;73.41
41573;BME280;27286;47.870;19.006;2022-09-09T00:19:02;98976.88;;;18.64;73.19
41573;BME280;27286;47.870;19.006;2022-09-09T00:21:33;98967.63;;;18.58;73.25
41573;BME280;27286;47.870;19.006;2022-09-09T00:24:00;98968.97;;;18.64;73.08
41573;BME280;27286;47.870;19.006;2022-09-09T00:26:39;98970.72;;;18.75;73.00
41573;BME280;27286;47.870;19.006;2022-09-09T00:31:38;98957.22;;;18.68;72.80
41573;BME280;27286;47.870;19.006;2022-09-09T00:34:11;98954.47;;;18.70;72.90
41573;BME280;27286;47.870;19.006;2022-09-09T00:36:38;98960.88;;;18.77;73.29
41573;BME280;27286;47.870;19.006;2022-09-09T00:39:04;98955.25;;;18.81;73.49
41573;BME280;27286;47.870;19.006;2022-09-09T00:44:33;98961.81;;;18.87;73.35
41573;BME280;27286;47.870;19.006;2022-09-09T00:52:44;98965.81;;;18.81;72.65
41573;BME280;27286;47.870;19.006;2022-09-09T00:57:57;98969.50;;;18.79;73.23
41573;BME280;27286;47.870;19.006;2022-09-09T01:00:29;98970.47;;;18.78;73.27
41573;BME280;27286;47.870;19.006;2022-09-09T01:06:00;98976.22;;;18.83;72.55
41573;BME280;27286;47.870;19.006;2022-09-09T01:16:29;98967.13;;;18.76;71.78
41573;BME280;27286;47.870;19.006;2022-09-09T01:18:58;98961.00;;;18.75;71.88
41573;BME280;27286;47.870;19.006;2022-09-09T01:21:46;98977.63;;;18.87;71.34
41573;BME280;27286;47.870;19.006;2022-09-09T01:24:22;98997.19;;;18.84;71.10
41573;BME280;27286;47.870;19.006;2022-09-09T01:26:54;98986.78;;;18.83;71.22
41573;BME280;27286;47.870;19.006;2022-09-09T01:29:21;98994.44;;;18.86;71.20
41573;BME280;27286;47.870;19.006;2022-09-09T01:31:56;98992.50;;;18.88;71.39
41573;BME280;27286;47.870;19.006;2022-09-09T01:34:25;98997.66;;;18.89;71.49
41573;BME280;27286;47.870;19.006;2022-09-09T01:39:26;98972.84;;;18.81;70.76
41573;BME280;27286;47.870;19.006;2022-09-09T01:41:53;98967.56;;;18.81;70.78
41573;BME280;27286;47.870;19.006;2022-09-09T01:51:59;98977.69;;;18.76;71.34
41573;BME280;27286;47.870;19.006;2022-09-09T02:03:23;98993.16;;;18.69;71.14
41573;BME280;27286;47.870;19.006;2022-09-09T02:05:54;98998.31;;;18.71;70.91
41573;BME280;27286;47.870;19.006;2022-09-09T02:08:39;98999.28;;;18.70;71.02
41573;BME280;27286;47.870;19.006;2022-09-09T02:11:15;99002.88;;;18.69;70.47
41573;BME280;27286;47.870;19.006;2022-09-09T02:13:43;99006.09;;;18.72;70.88
41573;BME280;27286;47.870;19.006;2022-09-09T02:16:28;99010.78;;;18.69;70.82
41573;BME280;27286;47.870;19.006;2022-09-09T02:19:07;99005.78;;;18.66;71.38
41573;BME280;27286;47.870;19.006;2022-09-09T02:21:35;99012.94;;;18.63;71.16
41573;BME280;27286;47.870;19.006;2022-09-09T02:24:04;99008.84;;;18.59;71.39
41573;BME280;27286;47.870;19.006;2022-09-09T02:26:32;99018.94;;;18.54;71.74
41573;BME280;27286;47.870;19.006;2022-09-09T02:29:01;99019.19;;;18.51;71.55
41573;BME280;27286;47.870;19.006;2022-09-09T02:31:28;99021.13;;;18.49;71.72
41573;BME280;27286;47.870;19.006;2022-09-09T02:33:58;99012.72;;;18.44;71.98
41573;BME280;27286;47.870;19.006;2022-09-09T02:36:27;99019.06;;;18.42;72.19
41573;BME280;27286;47.870;19.006;2022-09-09T02:38:54;99017.06;;;18.34;72.59
41573;BME280;27286;47.870;19.006;2022-09-09T02:41:26;99016.34;;;18.32;72.66
41573;BME280;27286;47.870;19.006;2022-09-09T02:43:53;99025.81;;;18.34;72.58
41573;BME280;27286;47.870;19.006;2022-09-09T02:49:15;99013.34;;;18.25;72.23
41573;BME280;27286;47.870;19.006;2022-09-09T02:54:27;99023.69;;;18.17;72.33
41573;BME280;27286;47.870;19.006;2022-09-09T02:57:02;99015.16;;;18.14;72.82
41573;BME280;27286;47.870;19.006;2022-09-09T02:59:29;99019.72;;;18.12;72.80
41573;BME280;27286;47.870;19.006;2022-09-09T03:01:55;99006.78;;;18.09;72.70
41573;BME280;27286;47.870;19.006;2022-09-09T03:04:21;99008.94;;;18.03;73.15
41573;BME280;27286;47.870;19.006;2022-09-09T03:06:46;99004.19;;;17.97;73.45
41573;BME280;27286;47.870;19.006;2022-09-09T03:09:12;99001.41;;;17.99;73.40
41573;BME280;27286;47.870;19.006;2022-09-09T03:11:37;99011.13;;;17.98;73.29
41573;BME280;27286;47.870;19.006;2022-09-09T03:14:04;99003.44;;;17.95;73.20
41573;BME280;27286;47.870;19.006;2022-09-09T03:16:29;99012.28;;;17.94;73.35
41573;BME280;27286;47.870;19.006;2022-09-09T03:18:55;98998.41;;;17.92;73.36
41573;BME280;27286;47.870;19.006;2022-09-09T03:21:20;98998.41;;;17.92;73.14
41573;BME280;27286;47.870;19.006;2022-09-09T03:23:46;98987.16;;;17.90;73.38
41573;BME280;27286;47.870;19.006;2022-09-09T03:26:12;98978.22;;;17.82;73.33
41573;BME280;27286;47.870;19.006;2022-09-09T03:28:37;98982.38;;;17.84;73.16
41573;BME280;27286;47.870;19.006;2022-09-09T03:31:05;98997.22;;;17.96;72.89
41573;BME280;27286;47.870;19.006;2022-09-09T03:33:31;99000.69;;;17.97;72.85
41573;BME280;27286;47.870;19.006;2022-09-09T03:35:57;99000.81;;;17.95;72.65
41573;BME280;27286;47.870;19.006;2022-09-09T03:38:23;98996.50;;;17.83;72.93
41573;BME280;27286;47.870;19.006;2022-09-09T03:40:53;99007.50;;;17.77;73.53
41573;BME280;27286;47.870;19.006;2022-09-09T03:43:21;99016.00;;;17.69;73.48
41573;BME280;27286;47.870;19.006;2022-09-09T03:45:47;99007.34;;;17.56;74.06
41573;BME280;27286;47.870;19.006;2022-09-09T03:48:13;99022.88;;;17.59;73.93
41573;BME280;27286;47.870;19.006;2022-09-09T03:50:44;99019.91;;;17.53;73.92
41573;BME280;27286;47.870;19.006;2022-09-09T03:53:10;99021.69;;;17.52;74.34
41573;BME280;27286;47.870;19.006;2022-09-09T03:55:35;99022.53;;;17.53;74.32
41573;BME280;27286;47.870;19.006;2022-09-09T03:58:01;99036.66;;;17.52;74.26
41573;BME280;27286;47.870;19.006;2022-09-09T04:00:26;99040.34;;;17.49;74.34
41573;BME280;27286;47.870;19.006;2022-09-09T04:02:52;99023.22;;;17.43;74.24
41573;BME280;27286;47.870;19.006;2022-09-09T04:05:19;99044.25;;;17.43;74.34
41573;BME280;27286;47.870;19.006;2022-09-09T04:07:44;99043.53;;;17.41;74.61
41573;BME280;27286;47.870;19.006;2022-09-09T04:10:10;99032.19;;;17.41;74.83
41573;BME280;27286;47.870;19.006;2022-09-09T04:12:35;99033.25;;;17.38;74.83
41573;BME280;27286;47.870;19.006;2022-09-09T04:15:01;99041.16;;;17.38;74.83
41573;BME280;27286;47.870;19.006;2022-09-09T04:17:27;99046.41;;;17.38;74.84
41573;BME280;27286;47.870;19.006;2022-09-09T04:19:52;99043.19;;;17.35;75.08
41573;BME280;27286;47.870;19.006;2022-09-09T04:22:18;99037.81;;;17.36;74.95
41573;BME280;27286;47.870;19.006;2022-09-09T04:24:43;99047.13;;;17.40;74.63
41573;BME280;27286;47.870;19.006;2022-09-09T04:27:09;99049.41;;;17.34;74.68
41573;BME280;27286;47.870;19.006;2022-09-09T04:29:34;99051.91;;;17.35;74.83
41573;BME280;27286;47.870;19.006;2022-09-09T04:32:00;99052.88;;;17.34;75.14
41573;BME280;27286;47.870;19.006;2022-09-09T04:34:25;99050.56;;;17.30;75.08
41573;BME280;27286;47.870;19.006;2022-09-09T04:36:51;99056.47;;;17.33;75.29
41573;BME280;27286;47.870;19.006;2022-09-09T04:39:17;99059.69;;;17.37;75.36
41573;BME280;27286;47.870;19.006;2022-09-09T04:41:42;99054.53;;;17.35;75.15
41573;BME280;27286;47.870;19.006;2022-09-09T04:44:08;99057.91;;;17.37;75.43
41573;BME280;27286;47.870;19.006;2022-09-09T04:46:33;99055.97;;;17.39;75.61
41573;BME280;27286;47.870;19.006;2022-09-09T04:48:59;99048.81;;;17.41;75.55
41573;BME280;27286;47.870;19.006;2022-09-09T04:51:25;99057.19;;;17.47;75.52
41573;BME280;27286;47.870;19.006;2022-09-09T04:53:50;99052.88;;;17.45;75.67
41573;BME280;27286;47.870;19.006;2022-09-09T04:56:17;99044.66;;;17.50;75.77
41573;BME280;27286;47.870;19.006;2022-09-09T04:58:43;99054.34;;;17.50;76.09
41573;BME280;27286;47.870;19.006;2022-09-09T05:01:14;99055.06;;;17.52;76.08
41573;BME280;27286;47.870;19.006;2022-09-09T05:03:40;99050.28;;;17.57;75.99
41573;BME280;27286;47.870;19.006;2022-09-09T05:06:14;99049.22;;;17.59;75.76
41573;BME280;27286;47.870;19.006;2022-09-09T05:08:40;99055.06;;;17.63;75.44
41573;BME280;27286;47.870;19.006;2022-09-09T05:13:41;99059.91;;;17.69;75.46
41573;BME280;27286;47.870;19.006;2022-09-09T05:16:07;99054.75;;;17.67;75.37
41573;BME280;27286;47.870;19.006;2022-09-09T05:18:32;99066.75;;;17.71;75.18
41573;BME280;27286;47.870;19.006;2022-09-09T05:21:00;99062.75;;;17.66;75.63
41573;BME280;27286;47.870;19.006;2022-09-09T05:23:26;99067.19;;;17.65;75.91
41573;BME280;27286;47.870;19.006;2022-09-09T05:25:56;99067.81;;;17.69;76.05
41573;BME280;27286;47.870;19.006;2022-09-09T05:28:23;99057.16;;;17.70;76.01
41573;BME280;27286;47.870;19.006;2022-09-09T05:31:03;99060.41;;;17.74;75.57
41573;BME280;27286;47.870;19.006;2022-09-09T05:33:30;99066.03;;;17.69;75.51
41573;BME280;27286;47.870;19.006;2022-09-09T05:36:01;99072.13;;;17.70;76.07
41573;BME280;27286;47.870;19.006;2022-09-09T05:38:28;99069.00;;;17.76;76.22
41573;BME280;27286;47.870;19.006;2022-09-09T05:40:54;99065.94;;;17.82;76.25
41573;BME280;27286;47.870;19.006;2022-09-09T05:43:22;99058.38;;;17.89;76.28
41573;BME280;27286;47.870;19.006;2022-09-09T05:45:48;99058.03;;;17.93;76.20
41573;BME280;27286;47.870;19.006;2022-09-09T05:48:17;99062.94;;;17.98;76.13
41573;BME280;27286;47.870;19.006;2022-09-09T05:50:43;99058.03;;;18.04;75.95
41573;BME280;27286;47.870;19.006;2022-09-09T05:53:10;99051.44;;;18.10;76.24
41573;BME280;27286;47.870;19.006;2022-09-09T05:55:36;99048.69;;;18.12;75.72
41573;BME280;27286;47.870;19.006;2022-09-09T05:58:02;99050.03;;;18.17;75.17
41573;BME280;27286;47.870;19.006;2022-09-09T06:00:28;99050.84;;;18.18;75.25
41573;BME280;27286;47.870;19.006;2022-09-09T06:02:54;99062.34;;;18.28;74.81
41573;BME280;27286;47.870;19.006;2022-09-09T06:05:20;99069.78;;;18.34;74.64
41573;BME280;27286;47.870;19.006;2022-09-09T06:07:45;99066.66;;;18.40;74.51
41573;BME280;27286;47.870;19.006;2022-09-09T06:10:11;99056.94;;;18.41;74.17
41573;BME280;27286;47.870;19.006;2022-09-09T06:12:39;99059.44;;;18.42;73.59
41573;BME280;27286;47.870;19.006;2022-09-09T06:15:05;99068.78;;;18.46;73.85
41573;BME280;27286;47.870;19.006;2022-09-09T06:17:31;99063.41;;;18.48;73.81
41573;BME280;27286;47.870;19.006;2022-09-09T06:19:56;99064.00;;;18.51;73.65
41573;BME280;27286;47.870;19.006;2022-09-09T06:22:22;99053.91;;;18.56;73.72
41573;BME280;27286;47.870;19.006;2022-09-09T06:24:47;99066.41;;;18.66;73.94
41573;BME280;27286;47.870;19.006;2022-09-09T06:27:13;99068.53;;;18.72;73.10
41573;BME280;27286;47.870;19.006;2022-09-09T06:29:39;99072.59;;;18.76;72.79
41573;BME280;27286;47.870;19.006;2022-09-09T06:32:04;99067.59;;;18.73;73.07
41573;BME280;27286;47.870;19.006;2022-09-09T06:34:29;99067.44;;;18.74;73.64
41573;BME280;27286;47.870;19.006;2022-09-09T06:36:55;99068.28;;;18.75;74.06
41573;BME280;27286;47.870;19.006;2022-09-09T06:39:22;99073.22;;;18.68;73.58
41573;BME280;27286;47.870;19.006;2022-09-09T06:41:48;99070.31;;;18.60;74.41
41573;BME280;27286;47.870;19.006;2022-09-09T06:44:15;99073.66;;;18.62;75.85
41573;BME280;27286;47.870;19.006;2022-09-09T06:46:40;99079.78;;;18.62;75.21
41573;BME280;27286;47.870;19.006;2022-09-09T06:49:07;99077.66;;;18.68;76.05
41573;BME280;27286;47.870;19.006;2022-09-09T06:51:35;99074.31;;;18.66;75.34
41573;BME280;27286;47.870;19.006;2022-09-09T06:54:02;99077.66;;;18.68;75.48
41573;BME280;27286;47.870;19.006;2022-09-09T06:56:33;99079.34;;;18.69;75.62
41573;BME280;27286;47.870;19.006;2022-09-09T06:59:04;99087.13;;;18.70;75.27
41573;BME280;27286;47.870;19.006;2022-09-09T07:01:35;99089.75;;;18.70;76.01
41573;BME280;27286;47.870;19.006;2022-09-09T07:04:02;99094.91;;;18.72;75.72
41573;BME280;27286;47.870;19.006;2022-09-09T07:06:36;99098.13;;;18.75;75.99
41573;BME280;27286;47.870;19.006;2022-09-09T07:09:13;99093.69;;;18.76;76.30
41573;BME280;27286;47.870;19.006;2022-09-09T07:11:49;99100.53;;;18.78;75.93
41573;BME280;27286;47.870;19.006;2022-09-09T07:14:16;99093.44;;;18.79;76.21
41573;BME280;27286;47.870;19.006;2022-09-09T07:16:42;99092.38;;;18.81;75.71
41573;BME280;27286;47.870;19.006;2022-09-09T07:19:08;99095.59;;;18.85;75.51
41573;BME280;27286;47.870;19.006;2022-09-09T07:21:34;99086.72;;;18.86;75.18
41573;BME280;27286;47.870;19.006;2022-09-09T07:24:00;99090.53;;;18.93;75.73
41573;BME280;27286;47.870;19.006;2022-09-09T07:26:28;99082.25;;;18.98;75.82
41573;BME280;27286;47.870;19.006;2022-09-09T07:28:54;99082.59;;;19.04;75.33
41573;BME280;27286;47.870;19.006;2022-09-09T07:31:23;99094.94;;;19.15;74.94
41573;BME280;27286;47.870;19.006;2022-09-09T07:33:50;99099.81;;;19.19;73.64
41573;BME280;27286;47.870;19.006;2022-09-09T07:36:24;99107.22;;;19.26;73.39
41573;BME280;27286;47.870;19.006;2022-09-09T07:38:51;99105.78;;;19.33;73.33
41573;BME280;27286;47.870;19.006;2022-09-09T07:41:26;99099.13;;;19.38;73.67
41573;BME280;27286;47.870;19.006;2022-09-09T07:43:52;99099.47;;;19.45;73.22
41573;BME280;27286;47.870;19.006;2022-09-09T07:46:23;99096.47;;;19.49;73.33
41573;BME280;27286;47.870;19.006;2022-09-09T07:48:51;99097.88;;;19.53;71.92
41573;BME280;27286;47.870;19.006;2022-09-09T07:51:22;99098.59;;;19.56;72.25
41573;BME280;27286;47.870;19.006;2022-09-09T07:53:58;99106.97;;;19.61;73.13
41573;BME280;27286;47.870;19.006;2022-09-09T07:56:26;99104.66;;;19.67;73.21
41573;BME280;27286;47.870;19.006;2022-09-09T07:58:53;99113.88;;;19.73;73.35
41573;BME280;27286;47.870;19.006;2022-09-09T08:01:28;99097.75;;;19.76;73.21
41573;BME280;27286;47.870;19.006;2022-09-09T08:04:02;99106.72;;;19.85;72.94
41573;BME280;27286;47.870;19.006;2022-09-09T08:06:30;99113.41;;;19.89;72.29
41573;BME280;27286;47.870;19.006;2022-09-09T08:08:56;99101.19;;;19.88;72.93
41573;BME280;27286;47.870;19.006;2022-09-09T08:11:24;99108.31;;;19.97;72.07
41573;BME280;27286;47.870;19.006;2022-09-09T08:13:51;99116.31;;;20.06;72.17
41573;BME280;27286;47.870;19.006;2022-09-09T08:16:19;99107.97;;;20.11;71.89
41573;BME280;27286;47.870;19.006;2022-09-09T08:18:47;99115.41;;;20.17;70.08
41573;BME280;27286;47.870;19.006;2022-09-09T08:21:25;99111.38;;;20.23;71.04
41573;BME280;27286;47.870;19.006;2022-09-09T08:23:52;99104.00;;;20.26;70.50
41573;BME280;27286;47.870;19.006;2022-09-09T08:26:23;99103.38;;;20.34;70.00
41573;BME280;27286;47.870;19.006;2022-09-09T08:28:52;99111.88;;;20.37;70.16
41573;BME280;27286;47.870;19.006;2022-09-09T08:31:27;99103.56;;;20.42;71.09
41573;BME280;27286;47.870;19.006;2022-09-09T08:33:56;99096.06;;;20.47;70.94
41573;BME280;27286;47.870;19.006;2022-09-09T08:36:26;99094.28;;;20.57;69.85
41573;BME280;27286;47.870;19.006;2022-09-09T08:38:53;99100.59;;;20.66;69.57
41573;BME280;27286;47.870;19.006;2022-09-09T08:41:38;99088.63;;;20.71;68.31
41573;BME280;27286;47.870;19.006;2022-09-09T08:53:04;99095.75;;;20.90;66.41
41573;BME280;27286;47.870;19.006;2022-09-09T08:55:47;99087.41;;;20.95;66.62
41573;BME280;27286;47.870;19.006;2022-09-09T09:08:43;99093.44;;;21.45;66.35
41573;BME280;27286;47.870;19.006;2022-09-09T09:11:11;99092.06;;;21.51;65.63
41573;BME280;27286;47.870;19.006;2022-09-09T09:13:54;99097.34;;;21.60;63.79
41573;BME280;27286;47.870;19.006;2022-09-09T09:16:48;99084.50;;;21.66;63.71
41573;BME280;27286;47.870;19.006;2022-09-09T09:19:17;99094.53;;;21.72;62.00
41573;BME280;27286;47.870;19.006;2022-09-09T09:21:45;99089.34;;;21.80;60.87
41573;BME280;27286;47.870;19.006;2022-09-09T09:24:23;99092.53;;;21.83;59.80
41573;BME280;27286;47.870;19.006;2022-09-09T09:26:52;99083.22;;;21.89;59.15
41573;BME280;27286;47.870;19.006;2022-09-09T09:29:19;99091.53;;;22.04;58.95
41573;BME280;27286;47.870;19.006;2022-09-09T09:31:55;99075.75;;;22.12;56.90
41573;BME280;27286;47.870;19.006;2022-09-09T09:34:23;99086.75;;;22.17;57.38
41573;BME280;27286;47.870;19.006;2022-09-09T09:36:59;99082.13;;;22.29;58.44
41573;BME280;27286;47.870;19.006;2022-09-09T09:41:52;99082.78;;;22.40;58.11
41573;BME280;27286;47.870;19.006;2022-09-09T09:44:31;99067.78;;;22.49;58.20
41573;BME280;27286;47.870;19.006;2022-09-09T09:47:17;99074.88;;;22.58;58.57
41573;BME280;27286;47.870;19.006;2022-09-09T09:49:56;99068.94;;;22.64;57.89
41573;BME280;27286;47.870;19.006;2022-09-09T09:52:26;99058.75;;;22.69;57.13
41573;BME280;27286;47.870;19.006;2022-09-09T09:54:53;99070.13;;;22.79;56.84
41573;BME280;27286;47.870;19.006;2022-09-09T09:57:26;99070.94;;;22.90;56.19
41573;BME280;27286;47.870;19.006;2022-09-09T10:00:13;99075.72;;;23.04;56.65
41573;BME280;27286;47.870;19.006;2022-09-09T10:02:41;99065.03;;;23.14;56.35
41573;BME280;27286;47.870;19.006;2022-09-09T10:07:45;99065.16;;;23.30;53.63
41573;BME280;27286;47.870;19.006;2022-09-09T10:10:25;99073.38;;;23.36;53.01
41573;BME280;27286;47.870;19.006;2022-09-09T10:15:38;99069.31;;;23.50;52.53
41573;BME280;27286;47.870;19.006;2022-09-09T10:48:56;99077.66;;;25.66;42.64
41573;BME280;27286;47.870;19.006;2022-09-09T10:51:48;99068.34;;;25.78;42.26
41573;BME280;27286;47.870;19.006;2022-09-09T10:57:11;99072.31;;;25.91;43.28
41573;BME280;27286;47.870;19.006;2022-09-09T10:59:43;99063.66;;;25.89;44.13
41573;BME280;27286;47.870;19.006;2022-09-09T11:02:40;99076.34;;;25.87;43.81
41573;BME280;27286;47.870;19.006;2022-09-09T11:05:16;99070.16;;;25.86;44.11
41573;BME280;27286;47.870;19.006;2022-09-09T11:07:55;99065.84;;;25.77;43.83
41573;BME280;27286;47.870;19.006;2022-09-09T11:13:19;99076.50;;;25.69;43.78
41573;BME280;27286;47.870;19.006;2022-09-09T11:16:40;99072.00;;;25.77;42.75
41573;BME280;27286;47.870;19.006;2022-09-09T11:19:41;99068.34;;;25.87;42.32
41573;BME280;27286;47.870;19.006;2022-09-09T11:35:21;99068.91;;;27.45;39.01
41573;BME280;27286;47.870;19.006;2022-09-09T11:40:40;99067.91;;;27.84;37.90
41573;BME280;27286;47.870;19.006;2022-09-09T11:43:11;99059.81;;;28.07;37.12
41573;BME280;27286;47.870;19.006;2022-09-09T11:45:42;99065.00;;;28.23;37.25
41573;BME280;27286;47.870;19.006;2022-09-09T11:51:04;99049.41;;;28.12;36.85
41573;BME280;27286;47.870;19.006;2022-09-09T11:53:30;99052.97;;;28.04;36.48
41573;BME280;27286;47.870;19.006;2022-09-09T11:58:43;99044.03;;;27.97;37.18
41573;BME280;27286;47.870;19.006;2022-09-09T12:01:27;99037.59;;;28.06;38.00
41573;BME280;27286;47.870;19.006;2022-09-09T12:06:43;99028.81;;;28.78;37.60
41573;BME280;27286;47.870;19.006;2022-09-09T12:09:48;99034.28;;;29.27;37.54
41573;BME280;27286;47.870;19.006;2022-09-09T12:14:57;99028.09;;;31.86;32.96
41573;BME280;27286;47.870;19.006;2022-09-09T12:17:26;99027.81;;;33.41;29.51
41573;BME280;27286;47.870;19.006;2022-09-09T12:31:10;99032.59;;;40.08;21.53
41573;BME280;27286;47.870;19.006;2022-09-09T12:33:43;99022.94;;;39.90;20.16
41573;BME280;27286;47.870;19.006;2022-09-09T12:36:23;99022.03;;;39.37;20.82
41573;BME280;27286;47.870;19.006;2022-09-09T12:38:55;99007.31;;;39.38;19.60
41573;BME280;27286;47.870;19.006;2022-09-09T12:41:27;99008.13;;;39.06;19.92
41573;BME280;27286;47.870;19.006;2022-09-09T12:44:04;99003.63;;;37.98;20.75
41573;BME280;27286;47.870;19.006;2022-09-09T12:46:42;98991.31;;;37.06;22.20
41573;BME280;27286;47.870;19.006;2022-09-09T12:49:41;99001.03;;;36.45;22.60
41573;BME280;27286;47.870;19.006;2022-09-09T12:52:27;99000.63;;;35.43;23.48
41573;BME280;27286;47.870;19.006;2022-09-09T12:54:58;99004.66;;;35.10;25.16
41573;BME280;27286;47.870;19.006;2022-09-09T12:57:26;98994.31;;;34.95;25.04
41573;BME280;27286;47.870;19.006;2022-09-09T13:00:05;99007.59;;;34.97;25.32
41573;BME280;27286;47.870;19.006;2022-09-09T13:02:31;98993.81;;;34.87;25.05
41573;BME280;27286;47.870;19.006;2022-09-09T13:05:06;98986.00;;;35.20;24.58
41573;BME280;27286;47.870;19.006;2022-09-09T13:07:32;98987.94;;;35.78;23.60
41573;BME280;27286;47.870;19.006;2022-09-09T13:09:57;98988.66;;;36.37;22.59
41573;BME280;27286;47.870;19.006;2022-09-09T13:12:23;98990.53;;;35.62;23.54
41573;BME280;27286;47.870;19.006;2022-09-09T13:14:50;98992.09;;;35.04;24.73
41573;BME280;27286;47.870;19.006;2022-09-09T13:17:21;98978.56;;;34.26;26.15
41573;BME280;27286;47.870;19.006;2022-09-09T13:19:48;98977.63;;;33.59;26.41
41573;BME280;27286;47.870;19.006;2022-09-09T13:22:29;98976.38;;;33.11;27.62
41573;BME280;27286;47.870;19.006;2022-09-09T13:27:41;98960.41;;;34.51;26.20
41573;BME280;27286;47.870;19.006;2022-09-09T13:30:32;98964.88;;;34.87;25.86
41573;BME280;27286;47.870;19.006;2022-09-09T13:33:04;98963.88;;;36.05;24.39
41573;BME280;27286;47.870;19.006;2022-09-09T13:35:30;98954.06;;;37.01;22.56
41573;BME280;27286;47.870;19.006;2022-09-09T13:37:57;98963.16;;;36.10;23.74
41573;BME280;27286;47.870;19.006;2022-09-09T13:40:23;98954.41;;;35.44;23.79
41573;BME280;27286;47.870;19.006;2022-09-09T13:42:55;98955.53;;;34.72;25.10
41573;BME280;27286;47.870;19.006;2022-09-09T13:45:22;98970.72;;;33.88;25.66
41573;BME280;27286;47.870;19.006;2022-09-09T13:47:49;98975.66;;;32.98;26.73
41573;BME280;27286;47.870;19.006;2022-09-09T13:50:29;98965.88;;;32.27;27.56
41573;BME280;27286;47.870;19.006;2022-09-09T13:52:57;98971.41;;;31.81;28.25
41573;BME280;27286;47.870;19.006;2022-09-09T13:55:27;98971.63;;;31.46;28.33
41573;BME280;27286;47.870;19.006;2022-09-09T13:57:58;98973.91;;;31.23;30.07
41573;BME280;27286;47.870;19.006;2022-09-09T14:00:25;98967.28;;;31.12;30.71
41573;BME280;27286;47.870;19.006;2022-09-09T14:02:51;98969.56;;;31.15;30.85
41573;BME280;27286;47.870;19.006;2022-09-09T14:05:17;98962.31;;;31.09;31.09
41573;BME280;27286;47.870;19.006;2022-09-09T14:07:43;98968.09;;;30.99;31.12
41573;BME280;27286;47.870;19.006;2022-09-09T14:10:09;98962.53;;;30.94;30.44
41573;BME280;27286;47.870;19.006;2022-09-09T14:12:35;98958.66;;;32.14;29.04
41573;BME280;27286;47.870;19.006;2022-09-09T14:15:02;98964.25;;;32.13;28.75
41573;BME280;27286;47.870;19.006;2022-09-09T14:17:28;98957.53;;;31.64;29.58
41573;BME280;27286;47.870;19.006;2022-09-09T14:19:55;98954.44;;;31.60;30.31
41573;BME280;27286;47.870;19.006;2022-09-09T14:22:21;98952.88;;;32.04;29.11
41573;BME280;27286;47.870;19.006;2022-09-09T14:24:46;98951.53;;;32.71;28.02
41573;BME280;27286;47.870;19.006;2022-09-09T14:27:12;98944.16;;;33.16;26.94
41573;BME280;27286;47.870;19.006;2022-09-09T14:29:37;98930.16;;;34.43;26.09
41573;BME280;27286;47.870;19.006;2022-09-09T14:32:03;98925.31;;;35.28;23.83
41573;BME280;27286;47.870;19.006;2022-09-09T14:34:28;98931.06;;;35.32;24.66
41573;BME280;27286;47.870;19.006;2022-09-09T14:36:54;98924.06;;;34.77;25.28
41573;BME280;27286;47.870;19.006;2022-09-09T14:39:21;98934.88;;;34.47;25.11
41573;BME280;27286;47.870;19.006;2022-09-09T14:41:46;98939.94;;;34.85;24.96
41573;BME280;27286;47.870;19.006;2022-09-09T14:44:11;98938.69;;;35.23;24.59
41573;BME280;27286;47.870;19.006;2022-09-09T14:46:37;98936.81;;;35.00;24.18
41573;BME280;27286;47.870;19.006;2022-09-09T14:49:03;98930.25;;;34.18;24.84
41573;BME280;27286;47.870;19.006;2022-09-09T14:51:29;98925.56;;;33.76;25.75
41573;BME280;27286;47.870;19.006;2022-09-09T14:53:57;98926.78;;;32.87;27.65
41573;BME280;27286;47.870;19.006;2022-09-09T14:56:25;98916.56;;;32.20;28.75
41573;BME280;27286;47.870;19.006;2022-09-09T14:58:53;98913.66;;;31.57;30.25
41573;BME280;27286;47.870;19.006;2022-09-09T15:01:19;98914.56;;;31.18;30.44
41573;BME280;27286;47.870;19.006;2022-09-09T15:03:53;98921.78;;;30.84;30.51
41573;BME280;27286;47.870;19.006;2022-09-09T15:06:20;98925.22;;;30.51;31.12
41573;BME280;27286;47.870;19.006;2022-09-09T15:08:47;98925.78;;;30.27;31.70
41573;BME280;27286;47.870;19.006;2022-09-09T15:11:14;98923.84;;;30.08;32.35
41573;BME280;27286;47.870;19.006;2022-09-09T15:13:41;98925.22;;;29.97;32.74
41573;BME280;27286;47.870;19.006;2022-09-09T15:16:10;98925.06;;;30.05;33.44
41573;BME280;27286;47.870;19.006;2022-09-09T15:18:36;98924.50;;;30.23;33.33
41573;BME280;27286;47.870;19.006;2022-09-09T15:21:03;98925.28;;;31.04;31.61
41573;BME280;27286;47.870;19.006;2022-09-09T15:23:33;98931.28;;;31.13;31.28
41573;BME280;27286;47.870;19.006;2022-09-09T15:25:59;98932.94;;;30.74;32.22
41573;BME280;27286;47.870;19.006;2022-09-09T15:28:24;98948.56;;;30.44;32.05
41573;BME280;27286;47.870;19.006;2022-09-09T15:30:51;98930.88;;;30.09;32.86
41573;BME280;27286;47.870;19.006;2022-09-09T15:33:18;98938.38;;;30.33;31.96
41573;BME280;27286;47.870;19.006;2022-09-09T15:35:43;98935.28;;;30.36;32.65
41573;BME280;27286;47.870;19.006;2022-09-09T15:38:09;98944.72;;;30.12;32.22
41573;BME280;27286;47.870;19.006;2022-09-09T15:40:34;98942.66;;;30.08;32.24
41573;BME280;27286;47.870;19.006;2022-09-09T15:43:00;98939.06;;;30.01;33.04